createdAt,value
2023-04-15T00:01:02.557Z,99479.00
2023-04-15T00:03:29.881Z,99479.69
2023-04-15T00:05:57.476Z,99479.66
2023-04-15T00:08:24.449Z,99483.09
2023-04-15T00:10:51.004Z,99478.81
2023-04-15T00:13:17.438Z,99474.59
2023-04-15T00:15:44.047Z,99477.50
2023-04-15T00:18:10.519Z,99471.38
2023-04-15T00:20:37.740Z,99484.53
2023-04-15T00:23:04.613Z,99472.88
2023-04-15T00:25:31.386Z,99478.91
2023-04-15T00:27:58.330Z,99476.63
2023-04-15T00:30:25.661Z,99470.41
2023-04-15T00:32:52.939Z,99471.50
2023-04-15T00:35:21.642Z,99472.84
2023-04-15T00:37:51.207Z,99468.28
2023-04-15T00:40:19.593Z,99458.50
2023-04-15T00:42:46.317Z,99460.69
2023-04-15T00:45:13.840Z,99467.31
2023-04-15T00:47:42.851Z,99461.50
2023-04-15T00:50:10.760Z,99461.22
2023-04-15T00:52:38.072Z,99456.31
2023-04-15T00:55:05.637Z,99455.38
2023-04-15T00:57:33.218Z,99460.50
2023-04-15T01:00:01.185Z,99461.16
2023-04-15T01:02:28.164Z,99462.16
2023-04-15T01:04:54.875Z,99464.00
2023-04-15T01:07:21.357Z,99460.69
2023-04-15T01:09:48.221Z,99466.16
2023-04-15T01:12:16.666Z,99463.59
2023-04-15T01:14:43.431Z,99455.91
2023-04-15T01:17:10.026Z,99458.78
2023-04-15T01:19:37.232Z,99457.97
2023-04-15T01:22:05.696Z,99458.28
2023-04-15T01:24:36.173Z,99455.91
2023-04-15T01:27:03.344Z,99461.91
2023-04-15T01:29:31.683Z,99464.16
2023-04-15T01:31:58.441Z,99452.25
2023-04-15T01:34:27.113Z,99451.97
2023-04-15T01:36:54.113Z,99455.59
2023-04-15T01:39:21.669Z,99459.91
2023-04-15T01:41:48.522Z,99453.84
2023-04-15T01:44:16.344Z,99461.66
2023-04-15T01:46:42.906Z,99458.31
2023-04-15T01:49:09.592Z,99453.09
2023-04-15T01:51:36.089Z,99457.31
2023-04-15T01:54:22.642Z,99456.84
2023-04-15T01:57:11.040Z,99464.75
2023-04-15T01:59:57.420Z,99468.88
2023-04-15T02:02:44.927Z,99463.06
2023-04-15T02:05:31.550Z,99469.31
2023-04-15T02:08:18.168Z,99466.81
2023-04-15T02:10:44.824Z,99464.00
2023-04-15T02:13:11.323Z,99459.66
2023-04-15T02:15:37.787Z,99468.31
2023-04-15T02:18:04.698Z,99460.13
2023-04-15T02:20:32.092Z,99460.25
2023-04-15T02:22:58.623Z,99459.88
2023-04-15T02:25:25.245Z,99464.13
2023-04-15T02:27:52.123Z,99471.06
2023-04-15T02:30:18.781Z,99464.47
2023-04-15T02:32:46.041Z,99461.97
2023-04-15T02:35:12.575Z,99468.84
2023-04-15T02:37:44.082Z,99464.47
2023-04-15T02:40:12.190Z,99468.75
2023-04-15T02:42:42.612Z,99467.31
2023-04-15T02:45:14.549Z,99467.28
2023-04-15T02:47:43.321Z,99464.94
2023-04-15T02:50:12.788Z,99471.16
2023-04-15T02:52:42.002Z,99469.34
2023-04-15T02:55:09.635Z,99465.19
2023-04-15T02:57:41.230Z,99466.63
2023-04-15T03:00:11.530Z,99466.50
2023-04-15T03:02:42.438Z,99469.34
2023-04-15T03:05:13.952Z,99470.06
2023-04-15T03:07:46.333Z,99471.97
2023-04-15T03:10:12.918Z,99476.25
2023-04-15T03:12:40.719Z,99474.56
2023-04-15T03:15:09.827Z,99480.56
2023-04-15T03:17:41.437Z,99479.94
2023-04-15T03:20:08.963Z,99479.00
2023-04-15T03:22:35.624Z,99482.75
2023-04-15T03:25:03.340Z,99477.59
2023-04-15T03:27:29.942Z,99473.91
2023-04-15T03:30:00.124Z,99470.47
2023-04-15T03:32:30.163Z,99475.25
2023-04-15T03:34:56.574Z,99471.53
2023-04-15T03:37:23.234Z,99469.34
2023-04-15T03:39:49.874Z,99478.56
2023-04-15T03:42:16.656Z,99476.81
2023-04-15T03:44:43.187Z,99476.69
2023-04-15T03:47:09.817Z,99474.25
2023-04-15T03:49:37.169Z,99473.50
2023-04-15T03:52:03.866Z,99472.59
2023-04-15T03:54:30.419Z,99469.13
2023-04-15T03:56:57.707Z,99471.56
2023-04-15T03:59:24.307Z,99462.94
2023-04-15T04:01:51.006Z,99464.59
2023-04-15T04:04:17.730Z,99465.81
2023-04-15T04:06:44.585Z,99466.56
2023-04-15T04:09:11.116Z,99458.81
2023-04-15T04:11:37.874Z,99463.91
2023-04-15T04:14:04.380Z,99457.81
2023-04-15T04:16:31.055Z,99464.03
2023-04-15T04:18:57.718Z,99470.09
2023-04-15T04:21:24.362Z,99468.06
2023-04-15T04:23:51.319Z,99481.84
2023-04-15T04:26:17.842Z,99475.91
2023-04-15T04:28:44.670Z,99479.31
2023-04-15T04:31:11.769Z,99482.06
2023-04-15T04:33:38.535Z,99488.31
2023-04-15T04:36:05.599Z,99482.91
2023-04-15T04:38:32.131Z,99481.31
2023-04-15T04:40:58.666Z,99478.63
2023-04-15T04:43:25.285Z,99477.00
2023-04-15T04:45:52.068Z,99488.25
2023-04-15T04:48:18.783Z,99486.78
2023-04-15T04:50:46.887Z,99485.66
2023-04-15T04:53:13.355Z,99488.16
2023-04-15T04:55:40.032Z,99493.84
2023-04-15T04:58:06.866Z,99493.84
2023-04-15T05:00:33.582Z,99493.06
2023-04-15T05:03:00.855Z,99503.50
2023-04-15T05:05:27.425Z,99495.63
2023-04-15T05:07:54.143Z,99502.66
2023-04-15T05:10:20.564Z,99502.59
2023-04-15T05:12:47.117Z,99505.16
2023-04-15T05:15:13.724Z,99512.88
2023-04-15T05:17:40.291Z,99508.50
2023-04-15T05:20:07.613Z,99512.19
2023-04-15T05:22:34.441Z,99509.44
2023-04-15T05:25:01.132Z,99503.31
2023-04-15T05:27:27.621Z,99511.91
2023-04-15T05:29:54.382Z,99521.25
2023-04-15T05:32:20.893Z,99513.66
2023-04-15T05:34:47.617Z,99517.94
2023-04-15T05:37:14.140Z,99517.13
2023-04-15T05:39:40.887Z,99502.66
2023-04-15T05:42:07.588Z,99506.75
2023-04-15T05:44:34.203Z,99507.47
2023-04-15T05:47:00.922Z,99510.88
2023-04-15T05:49:27.549Z,99508.09
2023-04-15T05:51:54.283Z,99506.63
2023-04-15T05:54:23.110Z,99514.00
2023-04-15T05:56:49.531Z,99512.94
2023-04-15T05:59:16.188Z,99516.16
2023-04-15T06:01:42.889Z,99522.03
2023-04-15T06:04:09.670Z,99527.31
2023-04-15T06:06:36.502Z,99519.53
2023-04-15T06:09:03.099Z,99518.72
2023-04-15T06:11:30.018Z,99528.94
2023-04-15T06:13:56.761Z,99528.91
2023-04-15T06:16:23.439Z,99527.00
2023-04-15T06:18:50.263Z,99530.19
2023-04-15T06:21:16.931Z,99528.41
2023-04-15T06:23:43.759Z,99536.75
2023-04-15T06:26:10.502Z,99533.22
2023-04-15T06:28:37.039Z,99538.94
2023-04-15T06:31:03.556Z,99535.25
2023-04-15T06:33:30.265Z,99536.91
2023-04-15T06:35:56.897Z,99544.31
2023-04-15T06:38:23.404Z,99537.81
2023-04-15T06:40:50.546Z,99546.75
2023-04-15T06:43:16.995Z,99552.69
2023-04-15T06:45:43.823Z,99546.47
2023-04-15T06:48:10.614Z,99550.47
2023-04-15T06:50:37.623Z,99541.00
2023-04-15T06:53:04.296Z,99546.09
2023-04-15T06:55:31.724Z,99535.38
2023-04-15T06:57:58.170Z,99542.66
2023-04-15T07:00:25.378Z,99539.03
2023-04-15T07:02:51.952Z,99540.94
2023-04-15T07:05:18.944Z,99549.00
2023-04-15T07:07:46.047Z,99541.44
2023-04-15T07:10:12.610Z,99546.53
2023-04-15T07:12:39.144Z,99542.38
2023-04-15T07:15:06.826Z,99526.88
2023-04-15T07:17:33.425Z,99537.47
2023-04-15T07:20:00.121Z,99526.34
2023-04-15T07:22:26.654Z,99526.06
2023-04-15T07:24:53.114Z,99530.03
2023-04-15T07:27:19.560Z,99530.63
2023-04-15T07:29:46.029Z,99533.41
2023-04-15T07:32:12.491Z,99535.75
2023-04-15T07:34:39.032Z,99537.06
2023-04-15T07:37:05.655Z,99534.75
2023-04-15T07:39:32.112Z,99536.72
2023-04-15T07:41:59.129Z,99537.72
2023-04-15T07:44:27.055Z,99533.19
2023-04-15T07:46:53.976Z,99540.03
2023-04-15T07:49:21.469Z,99537.69
2023-04-15T07:51:49.265Z,99539.56
2023-04-15T07:54:16.260Z,99541.38
2023-04-15T07:56:42.970Z,99541.16
2023-04-15T07:59:10.263Z,99540.31
2023-04-15T08:01:37.695Z,99539.19
2023-04-15T08:04:04.661Z,99543.66
2023-04-15T08:06:31.333Z,99540.28
2023-04-15T08:08:57.912Z,99538.66
2023-04-15T08:11:25.014Z,99541.31
2023-04-15T08:13:52.358Z,99536.28
2023-04-15T08:16:21.389Z,99537.41
2023-04-15T08:18:49.122Z,99544.94
2023-04-15T08:21:16.872Z,99540.22
2023-04-15T08:23:44.829Z,99545.72
2023-04-15T08:26:11.688Z,99547.00
2023-04-15T08:28:39.927Z,99548.25
2023-04-15T08:31:06.707Z,99548.50
2023-04-15T08:33:33.257Z,99546.34
2023-04-15T08:35:59.735Z,99543.69
2023-04-15T08:38:26.501Z,99548.94
2023-04-15T08:40:53.144Z,99549.38
2023-04-15T08:43:28.359Z,99552.69
2023-04-15T08:45:55.853Z,99551.78
2023-04-15T08:48:24.712Z,99549.72
2023-04-15T08:50:52.140Z,99548.44
2023-04-15T08:53:19.217Z,99543.91
2023-04-15T08:55:50.155Z,99542.63
2023-04-15T08:58:18.065Z,99551.38
2023-04-15T09:00:44.831Z,99554.22
2023-04-15T09:03:11.794Z,99546.84
2023-04-15T09:05:38.705Z,99547.44
2023-04-15T09:08:05.757Z,99551.78
2023-04-15T09:10:33.458Z,99539.03
2023-04-15T09:13:02.019Z,99544.50
2023-04-15T09:15:29.942Z,99547.34
2023-04-15T09:17:57.110Z,99547.72
2023-04-15T09:20:24.057Z,99543.81
2023-04-15T09:22:52.035Z,99549.72
2023-04-15T09:25:21.748Z,99558.44
2023-04-15T09:27:53.191Z,99549.06
2023-04-15T09:30:19.984Z,99554.66
2023-04-15T09:32:54.617Z,99557.56
2023-04-15T09:35:23.233Z,99554.47
2023-04-15T09:37:51.284Z,99559.91
2023-04-15T09:40:37.531Z,99560.91
2023-04-15T09:43:06.022Z,99567.81
2023-04-15T09:45:34.110Z,99561.84
2023-04-15T09:48:22.206Z,99564.56
2023-04-15T09:50:50.042Z,99566.34
2023-04-15T09:53:21.871Z,99558.03
2023-04-15T09:55:54.675Z,99558.56
2023-04-15T09:58:26.613Z,99568.34
2023-04-15T10:00:55.219Z,99566.75
2023-04-15T10:03:29.619Z,99576.00
2023-04-15T10:05:58.821Z,99578.94
2023-04-15T10:08:30.752Z,99579.28
2023-04-15T10:10:57.593Z,99576.97
2023-04-15T10:13:25.985Z,99586.94
2023-04-15T10:15:58.748Z,99586.41
2023-04-15T10:18:27.258Z,99582.19
2023-04-15T10:20:55.173Z,99584.50
2023-04-15T10:23:24.422Z,99586.94
2023-04-15T10:25:53.999Z,99589.53
2023-04-15T10:28:22.706Z,99591.34
2023-04-15T10:30:49.973Z,99591.69
2023-04-15T10:33:20.464Z,99591.34
2023-04-15T10:35:48.865Z,99601.13
2023-04-15T10:38:38.572Z,99600.81
2023-04-15T10:41:25.162Z,99608.69
2023-04-15T10:44:02.991Z,99607.09
2023-04-15T10:46:45.028Z,99609.81
2023-04-15T10:49:17.181Z,99610.47
2023-04-15T10:51:46.273Z,99615.31
2023-04-15T10:54:24.930Z,99611.00
2023-04-15T10:57:06.689Z,99618.66
2023-04-15T10:59:37.692Z,99615.94
2023-04-15T11:02:08.156Z,99620.44
2023-04-15T11:04:57.813Z,99620.66
2023-04-15T11:07:46.792Z,99619.94
2023-04-15T11:10:25.849Z,99624.03
2023-04-15T11:12:54.543Z,99632.63
2023-04-15T11:15:33.502Z,99622.94
2023-04-15T11:18:11.155Z,99630.81
2023-04-15T11:20:39.316Z,99630.53
2023-04-15T11:23:13.006Z,99620.53
2023-04-15T11:25:43.313Z,99636.69
2023-04-15T11:28:12.783Z,99635.31
2023-04-15T11:30:40.372Z,99640.53
2023-04-15T11:33:09.352Z,99641.38
2023-04-15T11:35:36.402Z,99646.06
2023-04-15T11:38:09.066Z,99648.06
2023-04-15T11:40:36.203Z,99650.28
2023-04-15T11:43:16.656Z,99647.56
2023-04-15T11:45:54.953Z,99650.50
2023-04-15T11:48:27.914Z,99649.69
2023-04-15T11:51:06.037Z,99643.75
2023-04-15T11:53:46.146Z,99646.22
2023-04-15T11:56:18.871Z,99654.94
2023-04-15T11:58:46.496Z,99656.88
2023-04-15T12:01:13.979Z,99663.53
2023-04-15T12:03:48.887Z,99665.06
2023-04-15T12:06:21.065Z,99662.13
2023-04-15T12:09:08.399Z,99654.97
2023-04-15T12:11:51.778Z,99655.84
2023-04-15T12:14:28.673Z,99660.47
2023-04-15T12:17:01.464Z,99663.63
2023-04-15T12:19:46.113Z,99670.91
2023-04-15T12:22:15.299Z,99678.66
2023-04-15T12:24:48.585Z,99678.22
2023-04-15T12:27:17.088Z,99672.94
2023-04-15T12:29:44.179Z,99672.84
2023-04-15T12:32:15.924Z,99675.28
2023-04-15T12:34:49.514Z,99679.78
2023-04-15T12:37:16.502Z,99680.56
2023-04-15T12:39:44.640Z,99683.47
2023-04-15T12:42:12.364Z,99684.06
2023-04-15T12:44:39.649Z,99686.09
2023-04-15T12:47:07.908Z,99691.00
2023-04-15T12:49:34.574Z,99693.00
2023-04-15T12:52:02.956Z,99690.38
2023-04-15T12:54:30.640Z,99700.94
2023-04-15T12:56:58.132Z,99704.84
2023-04-15T12:59:25.343Z,99698.06
2023-04-15T13:01:53.972Z,99696.63
2023-04-15T13:04:21.701Z,99697.81
2023-04-15T13:06:48.862Z,99708.06
2023-04-15T13:09:15.571Z,99705.38
2023-04-15T13:11:42.945Z,99712.91
2023-04-15T13:14:11.758Z,99713.47
2023-04-15T13:16:38.926Z,99716.28
2023-04-15T13:19:05.552Z,99720.41
2023-04-15T13:21:35.770Z,99716.44
2023-04-15T13:24:03.084Z,99730.31
2023-04-15T13:26:29.837Z,99733.28
2023-04-15T13:28:56.771Z,99739.56
2023-04-15T13:31:23.363Z,99744.72
2023-04-15T13:33:49.840Z,99755.63
2023-04-15T13:36:16.709Z,99757.09
2023-04-15T13:38:43.373Z,99764.03
2023-04-15T13:41:09.865Z,99760.41
2023-04-15T13:43:36.693Z,99765.91
2023-04-15T13:46:03.393Z,99768.81
2023-04-15T13:48:30.168Z,99767.59
2023-04-15T13:50:56.926Z,99764.78
2023-04-15T13:53:33.782Z,99765.53
2023-04-15T13:56:09.941Z,99763.94
2023-04-15T13:58:36.934Z,99766.75
2023-04-15T14:01:05.680Z,99773.13
2023-04-15T14:03:33.750Z,99775.25
2023-04-15T14:06:00.638Z,99783.19
2023-04-15T14:08:27.167Z,99777.31
2023-04-15T14:10:53.667Z,99790.72
2023-04-15T14:13:20.336Z,99792.97
2023-04-15T14:15:47.464Z,99798.28
2023-04-15T14:18:14.052Z,99809.16
2023-04-15T14:20:40.852Z,99797.06
2023-04-15T14:23:07.464Z,99808.53
2023-04-15T14:25:34.309Z,99817.59
2023-04-15T14:28:02.251Z,99825.19
2023-04-15T14:30:28.779Z,99829.19
2023-04-15T14:32:55.478Z,99829.97
2023-04-15T14:35:21.995Z,99837.34
2023-04-15T14:37:48.867Z,99851.66
2023-04-15T14:40:15.334Z,99854.28
2023-04-15T14:42:42.123Z,99862.41
2023-04-15T14:45:09.459Z,99859.00
2023-04-15T14:47:36.168Z,99865.94
2023-04-15T14:50:03.147Z,99872.41
2023-04-15T14:52:38.655Z,99875.41
2023-04-15T14:55:07.201Z,99879.53
2023-04-15T14:57:33.750Z,99874.69
2023-04-15T15:00:00.263Z,99884.63
2023-04-15T15:02:38.284Z,99885.66
2023-04-15T15:05:06.547Z,99887.47
2023-04-15T15:07:33.181Z,99894.53
2023-04-15T15:09:59.689Z,99888.38
2023-04-15T15:12:26.124Z,99905.06
2023-04-15T15:14:52.673Z,99906.91
2023-04-15T15:17:19.123Z,99903.72
2023-04-15T15:19:45.594Z,99910.59
2023-04-15T15:22:12.250Z,99912.00
2023-04-15T15:24:38.855Z,99916.69
2023-04-15T15:27:05.476Z,99920.78
2023-04-15T15:29:31.956Z,99920.78
2023-04-15T15:31:58.450Z,99927.28
2023-04-15T15:34:24.882Z,99927.22
2023-04-15T15:36:51.390Z,99925.91
2023-04-15T15:39:17.826Z,99928.47
2023-04-15T15:41:44.501Z,99934.41
2023-04-15T15:44:10.928Z,99937.09
2023-04-15T15:46:37.726Z,99942.66
2023-04-15T15:49:04.538Z,99942.88
2023-04-15T15:51:32.117Z,99954.25
2023-04-15T15:53:58.561Z,99957.34
2023-04-15T15:56:25.189Z,99961.78
2023-04-15T15:58:51.763Z,99962.06
2023-04-15T16:01:18.517Z,99976.59
2023-04-15T16:03:45.496Z,99978.66
2023-04-15T16:06:12.026Z,99974.75
2023-04-15T16:08:38.568Z,99990.75
2023-04-15T16:11:05.055Z,99991.09
2023-04-15T16:13:31.786Z,99992.28
2023-04-15T16:15:58.456Z,99980.06
2023-04-15T16:18:25.005Z,99996.06
2023-04-15T16:20:51.429Z,99998.13
2023-04-15T16:23:18.778Z,100001.44
2023-04-15T16:25:45.492Z,100007.84
2023-04-15T16:28:24.965Z,100009.31
2023-04-15T16:30:52.730Z,100018.81
2023-04-15T16:33:19.321Z,100020.50
2023-04-15T16:35:45.718Z,100016.84
2023-04-15T16:38:12.339Z,100016.56
2023-04-15T16:40:38.938Z,100019.78
2023-04-15T16:43:07.370Z,100029.63
2023-04-15T16:45:33.869Z,100031.19
2023-04-15T16:48:00.623Z,100042.00
2023-04-15T16:50:27.310Z,100052.81
2023-04-15T16:52:54.367Z,100044.66
2023-04-15T16:55:21.159Z,100052.53
2023-04-15T16:58:02.245Z,100064.41
2023-04-15T17:00:29.783Z,100058.22
2023-04-15T17:02:56.403Z,100065.41
2023-04-15T17:05:23.006Z,100062.16
2023-04-15T17:07:49.704Z,100069.97
2023-04-15T17:10:16.379Z,100068.88
2023-04-15T17:12:42.914Z,100076.41
2023-04-15T17:15:10.125Z,100072.38
2023-04-15T17:17:36.559Z,100085.66
2023-04-15T17:20:04.217Z,100085.13
2023-04-15T17:22:31.373Z,100087.84
2023-04-15T17:24:57.922Z,100094.25
2023-04-15T17:27:26.402Z,100097.47
2023-04-15T17:29:52.996Z,100097.00
2023-04-15T17:32:19.557Z,100100.09
2023-04-15T17:34:50.758Z,100112.44
2023-04-15T17:37:18.087Z,100104.94
2023-04-15T17:39:45.479Z,100110.38
2023-04-15T17:42:12.766Z,100111.75
2023-04-15T17:44:40.016Z,100115.91
2023-04-15T17:47:06.889Z,100118.25
2023-04-15T17:49:34.349Z,100120.69
2023-04-15T17:52:00.970Z,100128.50
2023-04-15T17:54:27.537Z,100139.13
2023-04-15T17:56:54.015Z,100142.31
2023-04-15T17:59:20.581Z,100146.47
2023-04-15T18:01:47.005Z,100150.59
2023-04-15T18:04:13.753Z,100146.28
2023-04-15T18:06:40.371Z,100153.88
2023-04-15T18:09:06.984Z,100147.84
2023-04-15T18:11:33.870Z,100155.50
2023-04-15T18:14:03.298Z,100160.19
2023-04-15T18:16:30.110Z,100164.66
2023-04-15T18:18:56.784Z,100177.47
2023-04-15T18:21:23.297Z,100170.78
2023-04-15T18:23:49.850Z,100178.09
2023-04-15T18:26:16.311Z,100180.53
2023-04-15T18:28:42.761Z,100180.59
2023-04-15T18:31:09.514Z,100186.06
2023-04-15T18:33:36.019Z,100192.66
2023-04-15T18:36:02.588Z,100195.75
2023-04-15T18:38:29.199Z,100190.47
2023-04-15T18:40:55.975Z,100201.63
2023-04-15T18:43:22.471Z,100206.38
2023-04-15T18:45:49.093Z,100207.91
2023-04-15T18:48:15.914Z,100207.94
2023-04-15T18:50:43.226Z,100214.25
2023-04-15T18:53:09.952Z,100225.22
2023-04-15T18:55:36.754Z,100216.25
2023-04-15T18:58:08.355Z,100218.19
2023-04-15T19:00:38.923Z,100227.59
2023-04-15T19:03:06.091Z,100237.38
2023-04-15T19:05:33.115Z,100241.28
2023-04-15T19:07:59.816Z,100235.75
2023-04-15T19:10:28.159Z,100241.13
2023-04-15T19:12:55.567Z,100242.31
2023-04-15T19:15:22.420Z,100254.59
2023-04-15T19:17:49.052Z,100257.13
2023-04-15T19:20:15.923Z,100257.25
2023-04-15T19:22:43.208Z,100259.66
2023-04-15T19:25:10.210Z,100264.75
2023-04-15T19:27:38.211Z,100270.59
2023-04-15T19:30:06.458Z,100264.50
2023-04-15T19:32:33.361Z,100270.66
2023-04-15T19:34:59.838Z,100272.19
2023-04-15T19:37:26.450Z,100287.66
2023-04-15T19:39:54.719Z,100281.25
2023-04-15T19:42:21.468Z,100288.97
2023-04-15T19:44:47.959Z,100287.41
2023-04-15T19:47:14.548Z,100291.63
2023-04-15T19:49:41.172Z,100295.59
2023-04-15T19:52:16.649Z,100296.97
2023-04-15T19:54:43.316Z,100297.03
2023-04-15T19:57:09.813Z,100295.09
2023-04-15T19:59:37.649Z,100294.38
2023-04-15T20:02:04.780Z,100305.16
2023-04-15T20:04:31.657Z,100303.03
2023-04-15T20:06:58.400Z,100304.13
2023-04-15T20:09:24.911Z,100305.09
2023-04-15T20:12:46.653Z,100309.19
2023-04-15T20:14:38.014Z,100302.56
2023-04-15T20:17:04.467Z,100305.41
2023-04-15T20:19:31.276Z,100298.34
2023-04-15T20:21:57.796Z,100302.38
2023-04-15T20:24:24.418Z,100304.19
2023-04-15T20:26:50.954Z,100310.94
2023-04-15T20:29:17.501Z,100304.59
2023-04-15T20:31:44.181Z,100318.31
2023-04-15T20:34:12.111Z,100313.19
2023-04-15T20:36:38.720Z,100319.03
2023-04-15T20:39:05.735Z,100315.56
2023-04-15T20:41:32.297Z,100323.16
2023-04-15T20:43:58.878Z,100320.00
2023-04-15T20:46:27.375Z,100326.03
2023-04-15T20:48:54.589Z,100322.00
2023-04-15T20:51:21.276Z,100321.81
2023-04-15T20:53:47.694Z,100325.22
2023-04-15T20:56:14.359Z,100318.22
2023-04-15T20:58:41.161Z,100329.56
2023-04-15T21:01:08.071Z,100330.31
2023-04-15T21:03:34.921Z,100329.63
2023-04-15T21:06:01.504Z,100327.06
2023-04-15T21:08:29.841Z,100336.38
2023-04-15T21:10:57.056Z,100334.63
2023-04-15T21:13:24.274Z,100339.88
2023-04-15T21:15:53.765Z,100343.28
2023-04-15T21:18:22.028Z,100343.44
2023-04-15T21:20:58.890Z,100345.22
2023-04-15T21:23:26.160Z,100353.84
2023-04-15T21:25:52.760Z,100353.78
2023-04-15T21:28:19.409Z,100353.13
2023-04-15T21:30:46.172Z,100352.94
2023-04-15T21:33:13.113Z,100361.91
2023-04-15T21:35:39.595Z,100362.50
2023-04-15T21:38:06.335Z,100365.91
2023-04-15T21:40:33.107Z,100369.41
2023-04-15T21:42:59.705Z,100369.22
2023-04-15T21:45:26.320Z,100370.88
2023-04-15T21:48:06.026Z,100371.09
2023-04-15T21:50:38.966Z,100371.06
2023-04-15T21:53:08.037Z,100377.88
2023-04-15T21:55:35.619Z,100378.16
2023-04-15T21:58:02.138Z,100377.25
2023-04-15T22:00:28.997Z,100375.50
2023-04-15T22:02:55.572Z,100384.44
2023-04-15T22:05:22.302Z,100390.53
2023-04-15T22:07:48.992Z,100386.09
2023-04-15T22:10:15.657Z,100390.31
2023-04-15T22:12:42.400Z,100385.19
2023-04-15T22:15:09.187Z,100394.66
2023-04-15T22:17:35.720Z,100394.66
2023-04-15T22:20:02.662Z,100393.28
2023-04-15T22:22:43.871Z,100394.09
2023-04-15T22:25:12.328Z,100400.75
2023-04-15T22:27:38.860Z,100411.94
2023-04-15T22:30:06.507Z,100410.38
2023-04-15T22:32:33.093Z,100416.84
2023-04-15T22:35:00.216Z,100415.97
2023-04-15T22:37:30.378Z,100421.38
2023-04-15T22:39:57.382Z,100428.97
2023-04-15T22:42:24.158Z,100430.75
2023-04-15T22:44:51.430Z,100435.09
2023-04-15T22:47:18.547Z,100433.25
2023-04-15T22:49:45.614Z,100443.72
2023-04-15T22:52:14.582Z,100444.28
2023-04-15T22:54:50.383Z,100448.50
2023-04-15T22:57:16.844Z,100442.63
2023-04-15T22:59:43.418Z,100448.91
2023-04-15T23:02:10.195Z,100455.59
2023-04-15T23:04:36.882Z,100455.53
2023-04-15T23:07:03.753Z,100450.84
2023-04-15T23:09:30.568Z,100455.91
2023-04-15T23:11:57.483Z,100464.19
2023-04-15T23:14:26.070Z,100459.97
2023-04-15T23:16:52.945Z,100459.72
2023-04-15T23:19:19.445Z,100464.31
2023-04-15T23:21:46.341Z,100474.22
2023-04-15T23:24:12.806Z,100476.69
2023-04-15T23:26:39.422Z,100469.66
2023-04-15T23:29:07.787Z,100475.72
2023-04-15T23:31:35.239Z,100472.34
2023-04-15T23:34:03.209Z,100476.00
2023-04-15T23:36:29.906Z,100472.66
2023-04-15T23:38:56.346Z,100471.56
2023-04-15T23:41:23.048Z,100471.78
2023-04-15T23:43:49.730Z,100474.34
2023-04-15T23:46:16.953Z,100474.69
2023-04-15T23:48:43.466Z,100481.19
2023-04-15T23:51:10.189Z,100484.88
2023-04-15T23:53:36.678Z,100482.38
2023-04-15T23:56:03.418Z,100483.19
2023-04-15T23:58:30.004Z,100477.31
